Terminal Aerodrome Forecast
Issued by NWS Sioux Falls, SD

Home | Current Version | Previous Version | Text Only | Print | Product List | Glossary On
Versions: 1 2 3 4 5 6 7 8 9 10 11 12 13 14 15 16 17 18 19 20 21 22 23 24 25 26 27 28 29 30 31 32 33 34 35 36 37 38 39 40 41 42
000
FTUS43 KFSD 231729
TAFSUX
TAF
KSUX 231729Z 2318/2418 34005KT P6SM BKN015
     FM232000 VRB03KT P6SM BKN025
     FM232200 14007KT P6SM BKN040
     FM240800 11010KT P6SM BKN035
     FM241100 11012KT 6SM -SN OVC020
     FM241700 09013KT 1 1/2SM -SN OVC008=

USA.gov is the U.S. government's official web portal to all federal, state and local government web resources and services.